Time;durP1;ratioP1;P1;durP2;ratioP2;P2;SDS_P1;SDS_P2;PMS_P1;PMS_P2;Temp;Humidity;BMP_temperature;BMP_pressure;BME280_temperature;BME280_humidity;BME280_pressure;Samples;Min_cycle;Max_cycle;Signal;HPM_P1;HPM_P2
2021/08/18 00:00:25;;;;;;;66.80;25.63;;;12.80;99.90;;;;;;4986152;28;20128;-71
2021/08/18 00:02:52;;;;;;;69.53;27.02;;;12.80;99.90;;;;;;4980610;28;20521;-72
2021/08/18 00:05:20;;;;;;;74.35;28.27;;;12.80;99.90;;;;;;4966034;28;20052;-72
2021/08/18 00:07:47;;;;;;;69.65;28.00;;;12.80;99.90;;;;;;4981776;28;20116;-72
2021/08/18 00:10:14;;;;;;;63.58;26.02;;;12.80;99.90;;;;;;4985251;28;20569;-72
2021/08/18 00:12:41;;;;;;;64.03;24.70;;;12.90;99.90;;;;;;4957607;28;20043;-71
2021/08/18 00:15:10;;;;;;;60.22;23.77;;;12.90;99.90;;;;;;4999806;28;20222;-72
2021/08/18 00:17:37;;;;;;;46.97;18.73;;;12.90;99.90;;;;;;4953359;28;20142;-73
2021/08/18 00:20:05;;;;;;;49.65;19.60;;;12.90;99.90;;;;;;4956416;28;20074;-72
2021/08/18 00:22:31;;;;;;;41.45;18.13;;;12.90;99.90;;;;;;5000248;28;20046;-71
2021/08/18 00:24:58;;;;;;;45.97;17.33;;;12.90;99.90;;;;;;4975776;28;20515;-70
2021/08/18 00:27:25;;;;;;;34.83;15.52;;;12.90;99.90;;;;;;4988354;28;20054;-71
2021/08/18 00:29:52;;;;;;;34.35;15.00;;;12.90;99.90;;;;;;4973091;28;20062;-71
2021/08/18 00:32:18;;;;;;;42.17;17.05;;;13.00;99.90;;;;;;4956688;28;20064;-71
2021/08/18 00:34:45;;;;;;;45.83;17.17;;;12.90;99.90;;;;;;4992848;28;20099;-73
2021/08/18 00:37:12;;;;;;;54.30;20.23;;;13.00;99.90;;;;;;4997020;28;20058;-69
2021/08/18 00:39:39;;;;;;;62.28;21.25;;;12.90;99.90;;;;;;5001274;28;20414;-69
2021/08/18 00:42:06;;;;;;;66.57;22.20;;;13.00;99.90;;;;;;4972168;28;20532;-71
2021/08/18 00:44:37;;;;;;;61.33;22.17;;;13.00;99.90;;;;;;4998418;28;20045;-70
2021/08/18 00:47:05;;;;;;;62.20;21.85;;;13.00;99.90;;;;;;5007187;28;20046;-69
2021/08/18 00:49:33;;;;;;;60.20;20.40;;;13.00;99.90;;;;;;5008432;28;20046;-70
2021/08/18 00:52:00;;;;;;;53.25;20.02;;;13.00;99.90;;;;;;5000304;28;20058;-71
2021/08/18 00:54:45;;;;;;;43.85;16.02;;;13.00;99.90;;;;;;4986658;28;20065;-69
2021/08/18 00:57:12;;;;;;;44.42;16.98;;;13.00;99.90;;;;;;4988669;28;20125;-71
2021/08/18 00:59:39;;;;;;;41.28;16.52;;;13.00;99.90;;;;;;4988987;28;20062;-72
2021/08/18 01:02:06;;;;;;;42.72;16.20;;;13.00;99.90;;;;;;4988503;28;20050;-71
2021/08/18 01:04:33;;;;;;;33.13;14.10;;;13.00;99.90;;;;;;4972531;28;20153;-71
2021/08/18 01:07:00;;;;;;;31.98;12.93;;;13.00;99.90;;;;;;4956352;28;20052;-71
2021/08/18 01:09:27;;;;;;;33.35;13.73;;;13.10;99.90;;;;;;4988479;28;20127;-71
2021/08/18 01:11:53;;;;;;;24.77;11.00;;;13.10;99.90;;;;;;4955158;28;20042;-71
2021/08/18 01:14:20;;;;;;;26.77;11.43;;;13.10;99.90;;;;;;4981000;28;20066;-70
2021/08/18 01:16:48;;;;;;;26.13;10.57;;;13.10;99.90;;;;;;4976540;28;20047;-71
2021/08/18 01:19:17;;;;;;;28.05;12.07;;;13.10;99.90;;;;;;4989623;28;20053;-72
2021/08/18 01:21:47;;;;;;;29.30;12.98;;;13.10;99.90;;;;;;4990584;28;20034;-70
2021/08/18 01:24:15;;;;;;;36.65;15.00;;;13.10;99.90;;;;;;4984168;28;20262;-70
2021/08/18 01:26:42;;;;;;;41.67;17.23;;;13.10;99.90;;;;;;4986884;28;20120;-71
2021/08/18 01:29:09;;;;;;;54.05;20.00;;;13.10;99.90;;;;;;4991854;28;20230;-71
2021/08/18 01:31:36;;;;;;;55.92;20.35;;;13.10;99.90;;;;;;4987174;28;20205;-72
2021/08/18 01:34:05;;;;;;;55.80;20.08;;;13.10;99.90;;;;;;4987324;28;20243;-72
2021/08/18 01:36:33;;;;;;;62.35;20.38;;;13.20;99.90;;;;;;4974535;28;20053;-70
2021/08/18 01:39:01;;;;;;;62.70;20.73;;;13.20;99.90;;;;;;4991434;28;20118;-70
2021/08/18 01:41:28;;;;;;;77.93;24.80;;;13.20;99.90;;;;;;4990739;28;20061;-70
2021/08/18 01:43:55;;;;;;;86.15;26.27;;;13.30;99.90;;;;;;4995560;28;20080;-70
2021/08/18 01:46:22;;;;;;;110.40;28.83;;;13.30;99.90;;;;;;4994482;28;20298;-70
2021/08/18 01:48:49;;;;;;;106.70;29.55;;;13.30;99.90;;;;;;4993440;28;20044;-72
2021/08/18 01:51:16;;;;;;;113.40;30.00;;;13.30;99.90;;;;;;4997576;28;20065;-71
2021/08/18 01:53:46;;;;;;;96.90;29.00;;;13.30;99.90;;;;;;5005277;28;20046;-72
2021/08/18 01:56:14;;;;;;;102.25;31.85;;;13.30;99.90;;;;;;5005600;28;20648;-70
2021/08/18 01:58:44;;;;;;;103.55;33.08;;;13.30;99.90;;;;;;4990305;28;20038;-70
2021/08/18 02:01:14;;;;;;;109.50;30.80;;;13.40;99.90;;;;;;4982203;28;20189;-71
2021/08/18 02:03:41;;;;;;;109.35;31.35;;;13.40;99.90;;;;;;4985639;28;20058;-70
2021/08/18 02:06:08;;;;;;;108.15;28.85;;;13.40;99.90;;;;;;4985477;28;20046;-71
2021/08/18 02:08:35;;;;;;;79.72;26.48;;;13.40;99.90;;;;;;4985783;28;20487;-72
2021/08/18 02:11:02;;;;;;;110.57;28.98;;;13.30;99.90;;;;;;4989964;28;20072;-72
2021/08/18 02:13:30;;;;;;;155.10;36.03;;;13.40;99.90;;;;;;4994927;28;20058;-70
2021/08/18 02:15:57;;;;;;;184.88;40.33;;;13.40;99.90;;;;;;4975882;28;20621;-72
2021/08/18 02:18:24;;;;;;;133.48;36.65;;;13.40;99.90;;;;;;4987102;28;20058;-71
2021/08/18 02:20:50;;;;;;;92.15;31.67;;;13.30;99.90;;;;;;4998105;28;20096;-71
2021/08/18 02:23:17;;;;;;;104.75;32.00;;;13.30;99.90;;;;;;5004375;28;20046;-70
2021/08/18 02:25:45;;;;;;;106.28;32.47;;;13.30;99.90;;;;;;5012817;28;20046;-69
2021/08/18 02:28:12;;;;;;;103.50;32.20;;;13.30;99.90;;;;;;5013997;28;20049;-69
2021/08/18 02:30:40;;;;;;;102.80;32.08;;;13.40;99.90;;;;;;4997068;28;20556;-70
2021/08/18 02:33:08;;;;;;;107.63;34.40;;;13.40;99.90;;;;;;5007839;28;20477;-70
2021/08/18 02:35:36;;;;;;;102.18;33.53;;;13.40;99.90;;;;;;4993845;28;20062;-70
2021/08/18 02:38:06;;;;;;;89.65;31.42;;;13.40;99.90;;;;;;4979022;28;20524;-72
2021/08/18 02:40:33;;;;;;;91.63;30.60;;;13.40;99.90;;;;;;4988610;28;20057;-72
2021/08/18 02:43:01;;;;;;;90.68;31.65;;;13.40;99.90;;;;;;4988523;28;20042;-72
2021/08/18 02:45:29;;;;;;;122.93;37.95;;;13.40;99.90;;;;;;4996170;28;20053;-72
2021/08/18 02:47:56;;;;;;;128.77;37.75;;;13.40;99.90;;;;;;4986850;28;20056;-70
2021/08/18 02:50:25;;;;;;;117.43;37.15;;;13.40;99.90;;;;;;4990921;28;20055;-73
2021/08/18 02:52:52;;;;;;;118.40;36.20;;;13.50;99.90;;;;;;4993460;28;20042;-72
2021/08/18 02:55:20;;;;;;;124.22;35.85;;;13.50;99.90;;;;;;5001241;28;20144;-73
2021/08/18 02:57:47;;;;;;;120.93;36.10;;;13.50;99.90;;;;;;5003085;28;20092;-71
2021/08/18 03:00:14;;;;;;;93.32;31.42;;;13.50;99.90;;;;;;5003318;28;20054;-71
2021/08/18 03:02:41;;;;;;;72.68;26.20;;;13.50;99.90;;;;;;5003054;28;20042;-71
2021/08/18 03:05:09;;;;;;;77.95;27.65;;;13.50;99.90;;;;;;4985527;28;20057;-72
2021/08/18 03:07:36;;;;;;;85.25;29.85;;;13.40;99.90;;;;;;4954689;28;20077;-71
2021/08/18 03:10:04;;;;;;;101.25;32.63;;;13.50;99.90;;;;;;4984671;28;20046;-70
2021/08/18 03:12:31;;;;;;;85.47;31.38;;;13.50;99.90;;;;;;4985527;28;20280;-69
2021/08/18 03:14:58;;;;;;;74.55;27.13;;;13.50;99.90;;;;;;4995915;28;20076;-71
2021/08/18 03:17:24;;;;;;;65.18;24.00;;;13.50;99.90;;;;;;4981852;28;20498;-71
2021/08/18 03:19:51;;;;;;;58.47;21.70;;;13.50;99.90;;;;;;4999692;28;20121;-71
2021/08/18 03:22:18;;;;;;;70.55;24.85;;;13.50;99.90;;;;;;4994420;28;20482;-70
2021/08/18 03:24:45;;;;;;;63.85;22.33;;;13.50;99.90;;;;;;4998683;28;20062;-71
2021/08/18 03:27:11;;;;;;;74.63;25.70;;;13.60;99.90;;;;;;4970126;28;20081;-72
2021/08/18 03:29:38;;;;;;;73.68;21.67;;;13.60;99.90;;;;;;5002795;28;20045;-70
2021/08/18 03:32:05;;;;;;;95.47;26.58;;;13.60;99.90;;;;;;5002137;28;20195;-73
2021/08/18 03:34:32;;;;;;;125.72;32.58;;;13.60;99.90;;;;;;4993345;28;20105;-73
2021/08/18 03:36:59;;;;;;;151.25;38.63;;;13.60;99.90;;;;;;4983328;28;20050;-72
2021/08/18 03:39:26;;;;;;;140.23;38.83;;;13.50;99.90;;;;;;4983431;28;20058;-71
2021/08/18 03:41:53;;;;;;;146.70;42.03;;;13.50;99.90;;;;;;4981850;28;20046;-73
2021/08/18 03:44:19;;;;;;;125.35;38.20;;;13.60;99.90;;;;;;4974531;28;20081;-72
2021/08/18 03:46:46;;;;;;;121.13;39.53;;;13.50;99.90;;;;;;5001002;28;20052;-71
2021/08/18 03:49:13;;;;;;;119.20;37.15;;;13.50;99.90;;;;;;5002495;28;20064;-72
2021/08/18 03:51:40;;;;;;;100.93;35.95;;;13.50;99.90;;;;;;4978432;28;20560;-71
2021/08/18 03:54:07;;;;;;;111.72;36.55;;;13.50;99.90;;;;;;4974136;28;20050;-72
2021/08/18 03:56:33;;;;;;;112.30;38.00;;;13.40;99.90;;;;;;4982818;28;20062;-72
2021/08/18 03:59:00;;;;;;;108.50;39.25;;;13.40;99.90;;;;;;4982386;28;20054;-71
2021/08/18 04:01:27;;;;;;;105.07;35.75;;;13.50;99.90;;;;;;4966249;28;20251;-72
2021/08/18 04:03:54;;;;;;;96.53;31.88;;;13.50;99.90;;;;;;4982850;28;20066;-72
2021/08/18 04:06:21;;;;;;;91.28;34.58;;;13.40;99.90;;;;;;4982140;28;20046;-72
2021/08/18 04:08:47;;;;;;;89.53;33.55;;;13.40;99.90;;;;;;4985136;28;20462;-71
2021/08/18 04:11:14;;;;;;;90.68;34.00;;;13.40;99.90;;;;;;4983829;28;20042;-72
2021/08/18 04:13:41;;;;;;;83.78;31.27;;;13.40;99.90;;;;;;4989466;28;20041;-71
2021/08/18 04:16:08;;;;;;;59.58;23.30;;;13.40;99.90;;;;;;4987916;28;20077;-72
2021/08/18 04:18:35;;;;;;;46.40;19.75;;;13.40;99.90;;;;;;4979344;28;20081;-71
2021/08/18 04:21:01;;;;;;;40.10;16.15;;;13.40;99.90;;;;;;4981998;28;20091;-72
2021/08/18 04:23:28;;;;;;;44.53;17.80;;;13.30;99.90;;;;;;4991113;28;20046;-72
2021/08/18 04:25:55;;;;;;;40.65;16.60;;;13.40;99.90;;;;;;4982870;28;20050;-71
2021/08/18 04:28:22;;;;;;;48.33;18.83;;;13.40;99.90;;;;;;4981838;28;20046;-72
2021/08/18 04:30:48;;;;;;;47.42;18.83;;;13.40;99.90;;;;;;4986120;28;20074;-73
2021/08/18 04:33:16;;;;;;;38.20;16.73;;;13.40;99.90;;;;;;4966867;28;20050;-71
2021/08/18 04:35:42;;;;;;;40.00;16.83;;;13.30;99.90;;;;;;4996815;28;20035;-72
2021/08/18 04:38:09;;;;;;;35.80;15.02;;;13.40;99.90;;;;;;4990213;28;20104;-72
2021/08/18 04:40:36;;;;;;;43.00;18.13;;;13.40;99.90;;;;;;4980047;28;20374;-73
2021/08/18 04:43:03;;;;;;;44.63;18.17;;;13.40;99.90;;;;;;4969515;28;20054;-71
2021/08/18 04:45:30;;;;;;;40.95;16.30;;;13.50;99.90;;;;;;4987749;28;20082;-70
2021/08/18 04:47:57;;;;;;;33.50;15.20;;;13.40;99.90;;;;;;4981139;28;20109;-72
2021/08/18 04:50:25;;;;;;;33.15;14.40;;;13.40;99.90;;;;;;4967763;28;20518;-73
2021/08/18 04:52:52;;;;;;;27.20;11.77;;;13.30;99.90;;;;;;4968884;28;20042;-71
2021/08/18 04:55:20;;;;;;;25.17;10.90;;;13.30;99.90;;;;;;4977901;28;20065;-73
2021/08/18 04:57:47;;;;;;;22.33;11.40;;;13.30;99.90;;;;;;4987794;28;20068;-72
2021/08/18 05:00:15;;;;;;;29.67;13.13;;;13.30;99.90;;;;;;5005674;28;20053;-73
2021/08/18 05:02:44;;;;;;;30.73;13.23;;;13.30;99.90;;;;;;4999008;28;20486;-71
2021/08/18 05:05:11;;;;;;;27.13;13.48;;;13.30;99.90;;;;;;4988376;28;20400;-71
2021/08/18 05:07:38;;;;;;;27.25;12.35;;;13.30;99.90;;;;;;4992013;28;20049;-71
2021/08/18 05:10:05;;;;;;;28.80;12.75;;;13.30;99.90;;;;;;5004198;28;20373;-71
2021/08/18 05:12:32;;;;;;;31.02;13.00;;;13.30;99.90;;;;;;5001264;28;20050;-71
2021/08/18 05:14:59;;;;;;;26.55;13.38;;;13.30;99.90;;;;;;4995965;28;20486;-72
2021/08/18 05:17:26;;;;;;;27.88;13.88;;;13.30;99.90;;;;;;4986344;28;20050;-72
2021/08/18 05:19:52;;;;;;;40.75;16.83;;;13.30;99.90;;;;;;4968069;28;20061;-72
2021/08/18 05:22:19;;;;;;;31.55;15.25;;;13.30;99.90;;;;;;4976918;28;20081;-72
2021/08/18 05:24:46;;;;;;;29.92;13.93;;;13.20;99.90;;;;;;5000886;28;20088;-71
2021/08/18 05:27:13;;;;;;;26.88;11.93;;;13.20;99.90;;;;;;5004167;28;20080;-73
2021/08/18 05:29:40;;;;;;;20.23;9.85;;;13.20;99.90;;;;;;4988478;28;20046;-71
2021/08/18 05:32:07;;;;;;;19.05;10.02;;;13.20;99.90;;;;;;5005063;28;20104;-72
2021/08/18 05:34:34;;;;;;;22.75;10.85;;;13.20;99.90;;;;;;4993637;28;20062;-73
2021/08/18 05:37:01;;;;;;;24.27;12.02;;;13.20;99.90;;;;;;4991399;28;20149;-71
2021/08/18 05:39:28;;;;;;;27.65;14.00;;;13.20;99.90;;;;;;4998727;28;20056;-73
2021/08/18 05:41:55;;;;;;;31.85;14.38;;;13.30;99.90;;;;;;4986472;28;20137;-72
2021/08/18 05:44:21;;;;;;;25.75;13.93;;;13.30;99.90;;;;;;4992897;28;20042;-72
2021/08/18 05:46:49;;;;;;;30.35;14.77;;;13.30;99.90;;;;;;4988286;28;20108;-72
2021/08/18 05:49:20;;;;;;;37.60;15.63;;;13.30;99.90;;;;;;4983312;28;20052;-73
2021/08/18 05:51:50;;;;;;;34.38;14.52;;;13.40;99.90;;;;;;5017862;28;20053;-72
2021/08/18 05:54:18;;;;;;;23.13;13.32;;;13.40;99.90;;;;;;4988126;28;20758;-71
2021/08/18 05:56:45;;;;;;;21.77;12.60;;;13.40;99.90;;;;;;4980042;28;20047;-73
2021/08/18 05:59:11;;;;;;;26.58;12.90;;;13.40;99.90;;;;;;4981503;28;20101;-73
2021/08/18 06:01:38;;;;;;;38.97;17.15;;;13.50;99.90;;;;;;5000535;28;20092;-72
2021/08/18 06:04:05;;;;;;;34.88;18.08;;;13.50;99.90;;;;;;5005547;28;20061;-71
2021/08/18 06:06:32;;;;;;;40.75;20.33;;;13.50;99.90;;;;;;5003438;28;20465;-73
2021/08/18 06:08:59;;;;;;;36.72;20.10;;;13.40;99.90;;;;;;4775353;28;120118;-73
2021/08/18 06:11:26;;;;;;;46.60;22.10;;;13.40;99.90;;;;;;4973545;28;20101;-72
2021/08/18 06:13:53;;;;;;;37.60;19.55;;;13.40;99.90;;;;;;4986290;28;20050;-70
2021/08/18 06:16:21;;;;;;;37.90;18.55;;;13.50;99.90;;;;;;4985137;28;20073;-72
2021/08/18 06:18:48;;;;;;;43.90;20.15;;;13.40;99.90;;;;;;4953202;28;20046;-72
2021/08/18 06:21:15;;;;;;;38.45;19.77;;;13.50;99.90;;;;;;4984592;28;20061;-72
2021/08/18 06:23:43;;;;;;;41.75;21.00;;;13.50;99.90;;;;;;4984613;28;20039;-73
2021/08/18 06:26:10;;;;;;;41.65;21.02;;;13.60;99.90;;;;;;5000628;28;20050;-73
2021/08/18 06:28:37;;;;;;;41.10;20.60;;;13.60;99.90;;;;;;4984919;28;20081;-73
2021/08/18 06:31:04;;;;;;;48.05;21.95;;;13.70;99.90;;;;;;4991400;28;20062;-71
2021/08/18 06:33:31;;;;;;;45.15;23.17;;;13.70;99.90;;;;;;4984473;28;20050;-73
2021/08/18 06:35:58;;;;;;;44.63;23.63;;;13.70;99.90;;;;;;4984575;28;20058;-72
2021/08/18 06:38:24;;;;;;;47.72;23.08;;;13.70;99.90;;;;;;4985090;28;20062;-73
2021/08/18 06:40:51;;;;;;;50.05;24.67;;;13.80;99.90;;;;;;4984321;28;20467;-73
2021/08/18 06:43:18;;;;;;;43.13;22.92;;;13.80;99.90;;;;;;4990632;28;20089;-74
2021/08/18 06:45:45;;;;;;;33.65;19.95;;;13.80;99.90;;;;;;4996940;28;20088;-73
2021/08/18 06:48:12;;;;;;;39.15;20.60;;;13.80;99.90;;;;;;4964366;28;20534;-74
2021/08/18 06:50:39;;;;;;;38.65;23.13;;;13.90;99.90;;;;;;4968787;28;20060;-73
2021/08/18 06:53:05;;;;;;;39.13;21.73;;;13.90;99.90;;;;;;4994289;28;20689;-74
2021/08/18 06:55:34;;;;;;;42.88;24.55;;;13.90;99.90;;;;;;4985633;28;20550;-72
2021/08/18 06:58:01;;;;;;;42.90;23.73;;;13.90;99.90;;;;;;4967071;28;20062;-74
2021/08/18 07:00:28;;;;;;;40.70;21.77;;;13.90;99.90;;;;;;4951739;28;20100;-74
2021/08/18 07:02:55;;;;;;;42.88;20.30;;;14.00;99.90;;;;;;4984512;28;20293;-73
2021/08/18 07:05:23;;;;;;;37.95;21.35;;;13.90;99.90;;;;;;4983619;28;20043;-74
2021/08/18 07:07:50;;;;;;;34.67;20.30;;;13.90;99.90;;;;;;4984819;28;20293;-73
2021/08/18 07:10:16;;;;;;;38.83;22.38;;;13.90;99.90;;;;;;4982854;28;20050;-74
2021/08/18 07:12:45;;;;;;;40.28;23.35;;;14.00;99.90;;;;;;4949897;28;20031;-73
2021/08/18 07:15:12;;;;;;;38.00;20.92;;;14.00;99.90;;;;;;5011062;28;20053;-73
2021/08/18 07:17:39;;;;;;;45.35;22.50;;;14.00;99.90;;;;;;4967334;28;20050;-71
2021/08/18 07:20:07;;;;;;;37.13;22.27;;;14.00;99.90;;;;;;4982516;28;20050;-73
2021/08/18 07:22:33;;;;;;;42.42;24.15;;;14.00;99.90;;;;;;4982826;28;20396;-74
2021/08/18 07:25:00;;;;;;;37.03;21.30;;;14.00;99.90;;;;;;4983492;28;20046;-75
2021/08/18 07:27:27;;;;;;;33.13;19.27;;;14.10;99.90;;;;;;4984483;28;20054;-74
2021/08/18 07:29:57;;;;;;;39.05;21.52;;;14.20;99.90;;;;;;4984400;28;20046;-77
2021/08/18 07:32:25;;;;;;;43.92;22.52;;;14.20;99.90;;;;;;4984674;28;20048;-77
2021/08/18 07:34:52;;;;;;;40.30;22.95;;;14.20;99.90;;;;;;4982977;28;20514;-77
2021/08/18 07:37:19;;;;;;;38.22;21.45;;;14.30;99.90;;;;;;4985311;28;20058;-76
2021/08/18 07:39:46;;;;;;;34.78;21.50;;;14.30;99.90;;;;;;4963616;28;20482;-76
2021/08/18 07:42:14;;;;;;;29.92;19.75;;;14.30;99.90;;;;;;4969545;28;20479;-76
2021/08/18 07:44:41;;;;;;;35.83;21.83;;;14.20;99.90;;;;;;4978736;28;20309;-76
2021/08/18 07:47:08;;;;;;;37.40;20.27;;;14.30;99.90;;;;;;4967807;28;20035;-76
2021/08/18 07:49:35;;;;;;;28.15;18.05;;;14.30;99.90;;;;;;4963607;28;20166;-77
2021/08/18 07:52:04;;;;;;;29.10;18.02;;;14.30;99.90;;;;;;5012178;28;20376;-77
2021/08/18 07:54:31;;;;;;;32.78;21.10;;;14.40;99.90;;;;;;4983592;28;20051;-77
2021/08/18 07:56:58;;;;;;;30.35;18.45;;;14.40;99.90;;;;;;5000747;28;20054;-77
2021/08/18 07:59:24;;;;;;;30.63;19.30;;;14.50;99.90;;;;;;4967594;28;20046;-77
2021/08/18 08:01:51;;;;;;;35.10;20.23;;;14.40;99.90;;;;;;4985722;28;20466;-76
2021/08/18 08:04:18;;;;;;;38.40;22.55;;;14.40;99.90;;;;;;4983675;28;20109;-76
2021/08/18 08:06:46;;;;;;;32.78;20.40;;;14.50;99.90;;;;;;4985841;28;20057;-77
2021/08/18 08:09:13;;;;;;;37.13;21.77;;;14.50;99.90;;;;;;4972853;28;20125;-77
2021/08/18 08:11:39;;;;;;;32.55;21.50;;;14.60;99.90;;;;;;4967958;28;20108;-76
2021/08/18 08:14:06;;;;;;;30.60;20.45;;;14.60;99.90;;;;;;4992885;28;20077;-77
2021/08/18 08:16:33;;;;;;;36.63;22.10;;;14.60;99.90;;;;;;4952708;28;20387;-77
2021/08/18 08:19:00;;;;;;;37.38;23.50;;;14.70;99.90;;;;;;4983191;28;20391;-77
2021/08/18 08:21:27;;;;;;;34.47;22.23;;;14.80;99.90;;;;;;4968212;28;20050;-77
2021/08/18 08:23:54;;;;;;;33.42;18.00;;;14.80;99.90;;;;;;5001583;28;20094;-77
2021/08/18 08:26:21;;;;;;;28.33;18.65;;;14.90;99.90;;;;;;4983127;28;20267;-77
2021/08/18 08:28:48;;;;;;;29.55;19.20;;;14.90;99.90;;;;;;4968508;28;20101;-77
2021/08/18 08:31:14;;;;;;;28.98;17.20;;;15.00;99.90;;;;;;4968075;28;20047;-77
2021/08/18 08:33:42;;;;;;;27.58;17.85;;;15.10;99.90;;;;;;4987905;28;20046;-77
2021/08/18 08:36:09;;;;;;;32.70;21.88;;;15.00;99.90;;;;;;4985581;28;20124;-77
2021/08/18 08:38:35;;;;;;;31.83;19.88;;;15.00;99.90;;;;;;5005645;28;20502;-77
2021/08/18 08:41:04;;;;;;;31.45;20.35;;;15.00;99.90;;;;;;4993555;28;20128;-77
2021/08/18 08:43:30;;;;;;;30.50;19.33;;;15.00;99.90;;;;;;4994510;28;20046;-77
2021/08/18 08:45:57;;;;;;;33.50;21.20;;;15.00;99.90;;;;;;4989972;28;20046;-77
2021/08/18 08:48:24;;;;;;;30.20;19.90;;;15.00;99.90;;;;;;5007619;28;20112;-78
2021/08/18 08:50:51;;;;;;;28.90;19.50;;;15.20;99.90;;;;;;4981308;28;20197;-78
2021/08/18 08:53:18;;;;;;;31.42;21.58;;;15.40;99.90;;;;;;4971650;28;20054;-78
2021/08/18 08:55:46;;;;;;;26.52;18.55;;;15.50;99.90;;;;;;4972228;28;20048;-78
2021/08/18 08:58:13;;;;;;;32.85;23.27;;;15.50;99.90;;;;;;4990038;28;20058;-77
2021/08/18 09:00:40;;;;;;;30.40;22.45;;;15.60;99.90;;;;;;4988909;28;20418;-77
2021/08/18 09:03:20;;;;;;;30.83;20.73;;;15.60;99.90;;;;;;4972576;28;20130;-78
2021/08/18 09:05:48;;;;;;;27.17;20.10;;;15.80;99.90;;;;;;4988180;28;20050;-78
2021/08/18 09:08:17;;;;;;;27.80;19.60;;;15.70;99.90;;;;;;4972741;28;20518;-78
2021/08/18 09:11:22;;;;;;;23.00;16.45;;;15.70;99.90;;;;;;4956785;28;20407;-78
2021/08/18 09:13:53;;;;;;;21.80;14.57;;;15.70;99.90;;;;;;4964196;28;20617;-78
2021/08/18 09:16:22;;;;;;;20.15;14.13;;;15.80;99.90;;;;;;4962460;28;20058;-78
2021/08/18 09:18:51;;;;;;;20.45;13.60;;;15.80;99.90;;;;;;5001925;28;20153;-79
2021/08/18 09:21:47;;;;;;;14.77;12.13;;;15.90;99.90;;;;;;4972553;28;20146;-79
2021/08/18 09:24:20;;;;;;;20.30;14.25;;;15.90;99.90;;;;;;4956211;28;20046;-79
2021/08/18 09:26:56;;;;;;;18.48;15.15;;;16.10;99.90;;;;;;4937304;28;20074;-80
2021/08/18 09:29:46;;;;;;;20.67;15.32;;;16.00;99.90;;;;;;4969227;28;20133;-80
2021/08/18 09:32:20;;;;;;;17.05;13.25;;;16.10;99.90;;;;;;4961195;28;20110;-79
2021/08/18 09:35:17;;;;;;;18.10;13.13;;;16.10;99.90;;;;;;4987705;28;20066;-79
2021/08/18 09:38:10;;;;;;;16.05;12.30;;;16.10;99.90;;;;;;4972225;28;20042;-79
2021/08/18 09:40:39;;;;;;;14.02;12.10;;;16.20;99.90;;;;;;4987027;28;20419;-80
2021/08/18 09:43:11;;;;;;;14.30;10.50;;;16.20;99.90;;;;;;4974762;28;20088;-80
2021/08/18 09:45:46;;;;;;;14.63;10.98;;;16.10;99.90;;;;;;4985229;28;20077;-79
2021/08/18 09:48:19;;;;;;;12.95;11.13;;;16.10;99.90;;;;;;4968613;28;20055;-79
2021/08/18 09:50:49;;;;;;;19.98;11.43;;;16.00;99.90;;;;;;4958050;28;20043;-80
2021/08/18 09:53:40;;;;;;;13.02;9.63;;;16.00;99.90;;;;;;4985804;28;20051;-80
2021/08/18 09:56:10;;;;;;;14.15;12.05;;;15.90;99.90;;;;;;4983009;28;20051;-80
2021/08/18 09:58:47;;;;;;;11.38;9.60;;;15.90;99.90;;;;;;4988595;28;20051;-79
2021/08/18 10:01:15;;;;;;;11.75;8.88;;;15.90;99.90;;;;;;4971322;28;20046;-79
2021/08/18 10:03:48;;;;;;;11.55;8.90;;;15.90;99.90;;;;;;4970857;28;20065;-80
2021/08/18 10:06:17;;;;;;;12.57;9.70;;;15.90;99.90;;;;;;4971749;28;20050;-80
2021/08/18 10:08:46;;;;;;;11.57;8.98;;;15.90;99.90;;;;;;4989864;28;20131;-78
2021/08/18 10:11:16;;;;;;;10.32;9.10;;;15.90;99.90;;;;;;4987660;28;20047;-79
2021/08/18 10:13:43;;;;;;;10.52;9.50;;;16.00;99.90;;;;;;4996278;28;20042;-80
2021/08/18 10:16:13;;;;;;;9.88;8.23;;;16.00;99.90;;;;;;4979970;28;20056;-78
2021/08/18 10:18:46;;;;;;;11.05;9.45;;;16.00;99.90;;;;;;5003642;28;20092;-80
2021/08/18 10:21:17;;;;;;;12.68;10.00;;;16.10;99.90;;;;;;4968363;28;20049;-80
2021/08/18 10:23:51;;;;;;;15.73;9.30;;;16.20;99.90;;;;;;4986485;28;20051;-80
2021/08/18 10:26:33;;;;;;;10.75;9.65;;;16.10;99.90;;;;;;4971005;28;20046;-78
2021/08/18 10:29:35;;;;;;;10.18;8.90;;;16.00;99.90;;;;;;4988055;28;20165;-79
2021/08/18 10:32:07;;;;;;;10.63;8.70;;;16.10;99.90;;;;;;4990303;28;20050;-80
2021/08/18 10:34:38;;;;;;;13.85;9.05;;;16.20;99.90;;;;;;4977687;28;20053;-79
2021/08/18 10:37:15;;;;;;;10.50;8.10;;;16.20;99.90;;;;;;4986430;28;20050;-80
2021/08/18 10:39:51;;;;;;;10.27;8.40;;;16.10;99.90;;;;;;4986075;28;20054;-80
2021/08/18 10:42:38;;;;;;;9.25;7.95;;;16.00;99.90;;;;;;4986216;28;20050;-81
2021/08/18 10:45:17;;;;;;;9.32;8.38;;;16.10;99.90;;;;;;4961925;28;20053;-79
2021/08/18 10:47:44;;;;;;;9.82;8.75;;;16.20;99.90;;;;;;5004702;28;20049;-79
2021/08/18 10:50:26;;;;;;;12.05;9.20;;;16.30;99.90;;;;;;5006283;28;20058;-79
2021/08/18 10:52:54;;;;;;;8.35;7.43;;;16.40;99.90;;;;;;5004720;28;20067;-79
2021/08/18 10:55:25;;;;;;;10.90;8.05;;;16.60;99.90;;;;;;4969415;28;20134;-79
2021/08/18 10:57:54;;;;;;;10.55;8.70;;;16.60;99.90;;;;;;4986099;28;20042;-78
2021/08/18 11:00:40;;;;;;;11.57;8.88;;;16.70;99.90;;;;;;4971222;28;20051;-79
2021/08/18 11:03:14;;;;;;;12.13;8.70;;;16.70;99.90;;;;;;4986325;28;20089;-79
2021/08/18 11:05:49;;;;;;;10.00;8.60;;;16.50;99.90;;;;;;4986865;28;20077;-79
2021/08/18 11:08:38;;;;;;;11.43;9.13;;;16.50;99.90;;;;;;4953916;28;20459;-79
2021/08/18 11:11:07;;;;;;;9.35;8.40;;;16.60;99.90;;;;;;4969632;28;20042;-79
2021/08/18 11:13:53;;;;;;;9.80;8.75;;;16.80;99.90;;;;;;4993167;28;20431;-79
2021/08/18 11:16:24;;;;;;;9.95;8.52;;;17.10;99.90;;;;;;4984318;28;20105;-80
2021/08/18 11:18:55;;;;;;;8.38;7.30;;;17.20;99.90;;;;;;5001787;28;20047;-78
2021/08/18 11:21:25;;;;;;;10.63;8.18;;;17.50;99.90;;;;;;4969574;28;20116;-79
2021/08/18 11:24:12;;;;;;;9.80;8.80;;;17.60;99.90;;;;;;4995452;28;20528;-79
2021/08/18 11:26:41;;;;;;;9.88;8.55;;;17.60;99.90;;;;;;4967222;28;20072;-77
2021/08/18 11:29:19;;;;;;;9.48;8.52;;;17.70;99.90;;;;;;4985229;28;20522;-79
2021/08/18 11:31:53;;;;;;;9.80;8.00;;;17.60;99.90;;;;;;4986273;28;20046;-79
2021/08/18 11:34:33;;;;;;;9.83;8.90;;;17.60;99.90;;;;;;4967874;28;20415;-78
2021/08/18 11:37:05;;;;;;;9.85;8.85;;;17.70;99.90;;;;;;4967902;28;20297;-79
2021/08/18 11:39:35;;;;;;;9.80;9.00;;;17.90;99.90;;;;;;4985129;28;20055;-79
2021/08/18 11:42:20;;;;;;;9.35;8.43;;;18.20;99.90;;;;;;4984501;28;20591;-79
2021/08/18 11:44:58;;;;;;;9.70;8.90;;;18.50;99.90;;;;;;4986825;28;20049;-77
2021/08/18 11:47:28;;;;;;;8.35;7.63;;;18.50;99.90;;;;;;4983444;28;20139;-78
2021/08/18 11:49:56;;;;;;;8.43;7.65;;;18.90;99.90;;;;;;4967493;28;20420;-77
2021/08/18 11:52:24;;;;;;;8.15;7.55;;;19.30;99.90;;;;;;4998912;28;20085;-79
2021/08/18 11:55:11;;;;;;;8.95;8.15;;;19.40;99.90;;;;;;4968755;28;20049;-79
2021/08/18 11:57:38;;;;;;;8.13;7.43;;;19.40;99.90;;;;;;4983865;28;20515;-78
2021/08/18 12:00:06;;;;;;;8.05;7.38;;;19.40;99.90;;;;;;4970513;28;20422;-79
2021/08/18 12:02:35;;;;;;;7.75;7.25;;;19.50;99.90;;;;;;4956975;28;20487;-80
2021/08/18 12:05:05;;;;;;;8.20;7.60;;;19.60;99.90;;;;;;4986276;28;20133;-79
2021/08/18 12:07:33;;;;;;;8.30;7.57;;;19.50;99.90;;;;;;4984367;28;20042;-80
2021/08/18 12:10:26;;;;;;;8.35;7.55;;;19.30;99.90;;;;;;4984348;28;20569;-79
2021/08/18 12:13:07;;;;;;;9.25;8.45;;;18.90;99.90;;;;;;4986277;28;20137;-79
2021/08/18 12:15:36;;;;;;;9.45;8.52;;;18.70;99.90;;;;;;4972948;28;20137;-76
2021/08/18 12:18:03;;;;;;;10.63;9.75;;;18.60;99.90;;;;;;4984034;28;20042;-75
2021/08/18 12:20:34;;;;;;;10.30;9.30;;;18.30;99.90;;;;;;4998018;28;20479;-76
2021/08/18 12:23:03;;;;;;;11.07;10.02;;;18.20;99.90;;;;;;4981913;28;20235;-76
2021/08/18 12:25:32;;;;;;;11.35;10.50;;;18.30;99.90;;;;;;4968901;28;20058;-75
2021/08/18 12:28:16;;;;;;;10.52;9.65;;;18.20;99.90;;;;;;4996740;28;20299;-75
2021/08/18 12:31:00;;;;;;;10.60;9.70;;;18.00;99.90;;;;;;4983246;28;20072;-76
2021/08/18 12:33:28;;;;;;;9.85;9.02;;;17.90;99.90;;;;;;4967367;28;20425;-74
2021/08/18 12:36:12;;;;;;;12.27;10.25;;;17.90;99.90;;;;;;4971669;28;20129;-75
2021/08/18 12:38:52;;;;;;;11.75;10.55;;;17.90;99.90;;;;;;4969255;28;20526;-77